Main page
METAR-TAF:

METAR-TAF

Airports :

Bournemouth Airport

Bournemouth, England

latitude: 50-47N, longitude: 001-50W, elevation: 11 m

Current weather observation

The report was made 13 minutes ago, at 21:20 UTC
Wind 2 kt from the Northeast
Temperature 9°C
Humidity 93%
Pressure 1019 hPa
Visibility: 9000 m

METAR: EGHH 202120Z 04002KT 9000 NSC 09/08 Q1019

Time: 22:33 (21:33 UTC)

Forecast

The report was made 1 hour and 39 minutes ago, at 19:54 UTC
Forecast valid from 20 at 21 UTC to 21 at 06 UTC
Wind 3 kt from variable directions
Visibility 10 km or more
no clouds below 1500 m and no cumulonimbus
Becoming
from 20 at 21 UTC to 20 at 24 UTC
Visibility: 7000 m
Becoming
from 21 at 00 UTC to 21 at 03 UTC
Visibility: 2500 m
mist
Probability 30%
from 21 at 00 UTC to 21 at 06 UTC
Visibility: 1200 m

TAF: EGHH 201954Z 2021/2106 VRB03KT CAVOK BECMG 2021/2024 7000 BECMG 2100/2103 2500 BR PROB30 2100/2106 1200

Weather observations and forecasts of more than 4000 airports (METAR and TAF reports).

The available stations are represented by yellow and red dots on the map.

Hover mouse over dot to see the name of the station.

Then click to see weather observations and forecasts.

To change the map : click on the green buttons with a black cross to zoom in, on the green button with a dash to zoom out, or on the green arrows for adjacent maps.


METAR-TAF: